WetterOnline ( https://www.wetteronline.de )

Wetter aktuell Salzwedel

Aktuelles Wetter: Lüchow (18m)

6-stündlich | Neueste Meldungen
Ortszeit Temperatur Wetter
Do, 06.10. 2:00 16.4° C bewölkt
Mi, 05.10. 20:00 14.5° C wolkenlos
Mi, 05.10. 14:00 16.5° C bedeckt
Mi, 05.10. 8:00 10.7° C bedeckt
Mi, 05.10. 2:00 9.6° C bewölkt
Di, 04.10. 20:00 11.8° C wolkig
Di, 04.10. 14:00 17.8° C leicht bewölkt
Di, 04.10. 8:00 9.3° C bedeckt
Ortszeit Temperatur Wetter
Do, 06.10. 5:00 14.6° C bedeckt
Do, 06.10. 4:50 14.6° C bedeckt
Do, 06.10. 4:40 14.6° C bedeckt
Do, 06.10. 4:30 15.0° C bedeckt
Do, 06.10. 4:20 15.0° C bedeckt
Do, 06.10. 4:10 15.1° C bedeckt
Do, 06.10. 4:00 15.3° C bedeckt
Do, 06.10. 3:30 15.8° C bedeckt
Do, 06.10. 3:00 17.7° C bedeckt
Do, 06.10. 2:30 17.7° C bewölkt
Do, 06.10. 2:00 16.4° C bewölkt
Ortszeit Relative Feuchte Sichtweite
Do, 06.10. 2:00 78% 60 km
Mi, 05.10. 20:00 77% 45 km
Mi, 05.10. 14:00 69% 45 km
Mi, 05.10. 8:00 92% 35 km
Mi, 05.10. 2:00 89% 45 km
Di, 04.10. 20:00 84% 40 km
Di, 04.10. 14:00 67% 40 km
Di, 04.10. 8:00 97% 30 km
Ortszeit Relative Feuchte Sichtweite
Do, 06.10. 5:00 77% >70 km
Do, 06.10. 4:50 77% -
Do, 06.10. 4:40 77% -
Do, 06.10. 4:30 74% >70 km
Do, 06.10. 4:20 74% -
Do, 06.10. 4:10 73% -
Do, 06.10. 4:00 71% >70 km
Do, 06.10. 3:30 72% 55 km
Do, 06.10. 3:00 71% 65 km
Do, 06.10. 2:30 71% >70 km
Do, 06.10. 2:00 78% 60 km
Ortszeit Niederschlagsmenge Niederschlagsart
Do, 06.10. 2:00 0.0 l/m2 in 6 Std. -
Mi, 05.10. 20:00 0.0 l/m2 in 12 Std. -
Mi, 05.10. 14:00 0.0 l/m2 in 6 Std. -
Mi, 05.10. 8:00 0.0 l/m2 in 12 Std. -
Mi, 05.10. 2:00 0.0 l/m2 in 6 Std. -
Di, 04.10. 20:00 0.0 l/m2 in 12 Std. -
Di, 04.10. 14:00 0.0 l/m2 in 6 Std. -
Di, 04.10. 8:00 0.0 l/m2 in 12 Std. -
Ortszeit Niederschlagsmenge Niederschlagsart
Do, 06.10. 5:00 0.0 l/m2 in 1 Std. Regen
Do, 06.10. 4:50 keine Meldung -
Do, 06.10. 4:40 keine Meldung -
Do, 06.10. 4:30 0.0 l/m2 in 1 Std. -
Do, 06.10. 4:20 keine Meldung -
Do, 06.10. 4:10 keine Meldung -
Do, 06.10. 4:00 <0.05 l/m2 in 1 Std. Regen
Do, 06.10. 3:30 <0.05 l/m2 in 1 Std. Schneeregen
Do, 06.10. 3:00 0.0 l/m2 in 1 Std. -
Do, 06.10. 2:30 0.0 l/m2 in 1 Std. -
Do, 06.10. 2:00 0.0 l/m2 in 1 Std. -
Ortszeit Stärke Spitze Richtung
km/h Bft. km/h Grad Sektor
Do, 06.10. 2:00 13 3 26 220° SW
Mi, 05.10. 20:00 7 2 43 180° S
Mi, 05.10. 14:00 22 4 46 220° SW
Mi, 05.10. 8:00 2 1 11 170° S
Mi, 05.10. 2:00 4 1 11 180° S
Di, 04.10. 20:00 4 1 29 160° S
Di, 04.10. 14:00 7 2 22 230° SW
Di, 04.10. 8:00 6 1 13 190° S
Ortszeit Stärke Spitze Richtung
km/h Bft. km/h Grad Sektor
Do, 06.10. 5:00 11 2 30 240° SW
Do, 06.10. 4:50 11 2 - 240° SW
Do, 06.10. 4:40 11 2 - 250° W
Do, 06.10. 4:30 14 3 29 260° W
Do, 06.10. 4:20 14 3 - 260° W
Do, 06.10. 4:10 13 3 - 260° W
Do, 06.10. 4:00 14 3 50 260° W
Do, 06.10. 3:30 24 4 50 270° W
Do, 06.10. 3:00 17 3 37 230° SW
Do, 06.10. 2:30 18 3 36 230° SW
Do, 06.10. 2:00 13 3 24 220° SW
Ortszeit Untergrenze Bedeckung Gattung
total tief tief mittel hoch
Do, 06.10. 2:00 1320 m 7/8 7/8 - - -
Mi, 05.10. 20:00 - 0/8 0/8 - - -
Mi, 05.10. 14:00 810 m 8/8 8/8 - - -
Mi, 05.10. 8:00 5100 m 8/8 8/8 - - -
Mi, 05.10. 2:00 6000 m 8/8 5/8 - - -
Di, 04.10. 20:00 10500 m 8/8 0/8 - - -
Di, 04.10. 14:00 870 m 3/8 3/8 - - -
Di, 04.10. 8:00 3900 m 8/8 8/8 - - -
Ortszeit Bedeckungsgrad in Achtel und Wolkenuntergrenze
Do, 06.10. 5:00 6(2100m) 8(2400m)
Do, 06.10. 4:50 6(2100m) 8(2400m)
Do, 06.10. 4:40 8
Do, 06.10. 4:30 8(1500m)
Do, 06.10. 4:20 8(1500m)
Do, 06.10. 4:10 8
Do, 06.10. 4:00 4(1380m) 8(1500m)
Do, 06.10. 3:30 3(840m) 8(1140m)
Do, 06.10. 3:00 6(930m) 8(1230m)
Do, 06.10. 2:30 7(1290m)
Do, 06.10. 2:00 7(1320m)
Ortszeit Luftdruck NN (hPa) Tendenz (hPa in 3 Std.)
Do, 06.10. 2:00 1016 + 1,0
Mi, 05.10. 20:00 1014 0,0
Mi, 05.10. 14:00 1016 - 0,7
Mi, 05.10. 8:00 1017 - 0,4
Mi, 05.10. 2:00 1018 - 0,5
Di, 04.10. 20:00 1019 - 0,6
Di, 04.10. 14:00 1021 - 1,0
Di, 04.10. 8:00 1022 - 0,2
Ortszeit Luftdruck NN (hPa) Tendenz (hPa in 3 Std.)
Do, 06.10. 5:00 1019 + 3,4
Do, 06.10. 4:50 1019 keine Meldung
Do, 06.10. 4:40 1019 keine Meldung
Do, 06.10. 4:30 1018 + 2,7
Do, 06.10. 4:20 1018 keine Meldung
Do, 06.10. 4:10 1018 keine Meldung
Do, 06.10. 4:00 1018 + 2,6
Do, 06.10. 3:30 1018 + 2,3
Do, 06.10. 3:00 1016 + 1,3
Do, 06.10. 2:30 1016 + 1,0
Do, 06.10. 2:00 1016 + 1,0
Ortszeit Schneehöhe (cm)
Do, 06.10. 2:00 0
Mi, 05.10. 20:00 0
Mi, 05.10. 14:00 0
Mi, 05.10. 8:00 0
Mi, 05.10. 2:00 0
Di, 04.10. 20:00 0
Di, 04.10. 14:00 0
Di, 04.10. 8:00 0
Ortszeit Schneehöhe (cm)
Do, 06.10. 5:00 0
Do, 06.10. 4:50 0
Do, 06.10. 4:40 0
Do, 06.10. 4:30 0
Do, 06.10. 4:20 0
Do, 06.10. 4:10 0
Do, 06.10. 4:00 0
Do, 06.10. 3:30 0
Do, 06.10. 3:00 0
Do, 06.10. 2:30 0
Do, 06.10. 2:00 0
Link zu dieser Seite / Seite empfehlen

Das Wetter in ...